createdAt,value
2023-01-31T00:03:04.353Z,5.17
2023-01-31T00:06:50.223Z,5.08
2023-01-31T00:10:39.435Z,5.09
2023-01-31T00:14:11.724Z,5.03
2023-01-31T00:17:36.949Z,5.03
2023-01-31T00:21:10.657Z,5.19
2023-01-31T00:25:01.150Z,5.11
2023-01-31T00:28:45.137Z,5.09
2023-01-31T00:32:33.212Z,5.11
2023-01-31T00:36:07.030Z,5.09
2023-01-31T00:39:37.388Z,5.11
2023-01-31T00:43:02.060Z,5.02
2023-01-31T00:46:50.052Z,5.01
2023-01-31T00:50:31.771Z,5.06
2023-01-31T00:53:59.653Z,4.97
2023-01-31T00:57:32.610Z,4.95
2023-01-31T01:01:21.888Z,4.98
2023-01-31T01:05:02.902Z,4.93
2023-01-31T01:08:34.690Z,4.97
2023-01-31T01:12:24.111Z,4.93
2023-01-31T01:15:50.931Z,4.99
2023-01-31T01:19:24.370Z,4.86
2023-01-31T01:23:02.562Z,4.84
2023-01-31T01:26:35.124Z,4.86
2023-01-31T01:30:10.836Z,4.86
2023-01-31T01:33:42.730Z,4.72
2023-01-31T01:37:30.640Z,4.75
2023-01-31T01:41:08.499Z,4.86
2023-01-31T01:44:47.781Z,4.73
2023-01-31T01:48:36.739Z,4.69
2023-01-31T01:52:25.862Z,4.68
2023-01-31T01:56:17.658Z,4.74
2023-01-31T02:00:09.397Z,4.69
2023-01-31T02:03:43.739Z,4.45
2023-01-31T02:07:08.112Z,4.49
2023-01-31T02:10:38.461Z,4.62
2023-01-31T02:14:27.475Z,4.70
2023-01-31T02:18:16.610Z,4.65
2023-01-31T02:22:14.411Z,4.68
2023-01-31T02:26:08.275Z,4.66
2023-01-31T02:30:20.284Z,4.75
2023-01-31T02:34:05.024Z,4.68
2023-01-31T02:38:01.829Z,4.68
2023-01-31T02:41:53.356Z,4.71
2023-01-31T02:45:54.218Z,4.68
2023-01-31T02:49:55.402Z,4.64
2023-01-31T02:53:37.355Z,4.67
2023-01-31T02:57:12.862Z,4.60
2023-01-31T03:00:45.822Z,4.72
2023-01-31T03:04:08.779Z,4.68
2023-01-31T03:08:00.232Z,4.69
2023-01-31T03:11:45.101Z,4.73
2023-01-31T03:15:26.157Z,4.69
2023-01-31T03:19:15.311Z,4.61
2023-01-31T03:22:46.561Z,4.63
2023-01-31T03:26:24.355Z,4.68
2023-01-31T03:30:13.573Z,4.71
2023-01-31T03:34:05.266Z,4.72
2023-01-31T03:37:57.300Z,4.61
2023-01-31T03:41:37.969Z,4.59
2023-01-31T03:45:22.142Z,4.59
2023-01-31T03:49:03.949Z,4.64
2023-01-31T03:52:27.996Z,4.58
2023-01-31T03:55:54.875Z,4.71
2023-01-31T03:59:20.244Z,4.68
2023-01-31T04:02:43.680Z,4.67
2023-01-31T04:06:17.801Z,4.61
2023-01-31T04:09:39.675Z,4.70
2023-01-31T04:13:19.407Z,4.54
2023-01-31T04:17:01.656Z,4.61
2023-01-31T04:20:35.868Z,4.58
2023-01-31T04:24:14.359Z,4.60
2023-01-31T04:27:52.760Z,4.51
2023-01-31T04:31:35.312Z,4.56
2023-01-31T04:35:24.281Z,4.44
2023-01-31T04:39:02.577Z,4.50
2023-01-31T04:42:44.175Z,4.44
2023-01-31T04:46:23.235Z,4.49
2023-01-31T04:50:12.463Z,4.51
2023-01-31T04:53:47.861Z,4.63
2023-01-31T04:57:37.056Z,4.54
2023-01-31T05:01:25.569Z,4.56
2023-01-31T05:04:59.723Z,4.48
2023-01-31T05:08:49.172Z,4.08
2023-01-31T05:12:23.465Z,4.08
2023-01-31T05:16:02.259Z,4.05
2023-01-31T05:19:40.337Z,4.03
2023-01-31T05:23:21.875Z,4.12
2023-01-31T05:27:03.490Z,4.01
2023-01-31T05:30:36.992Z,4.06
2023-01-31T05:33:53.995Z,4.00
2023-01-31T05:37:32.623Z,4.04
2023-01-31T05:40:55.770Z,4.02
2023-01-31T05:44:24.424Z,4.02
2023-01-31T05:47:33.570Z,3.99
2023-01-31T05:51:03.238Z,3.99
2023-01-31T05:54:24.545Z,3.97
2023-01-31T05:57:16.093Z,3.81
2023-01-31T06:00:56.146Z,3.84
2023-01-31T06:04:46.136Z,3.86
2023-01-31T06:08:13.588Z,3.87
2023-01-31T06:12:02.660Z,3.91
2023-01-31T06:15:52.405Z,3.96
2023-01-31T06:19:30.652Z,3.91
2023-01-31T06:23:10.154Z,3.92
2023-01-31T06:26:24.074Z,3.96
2023-01-31T06:29:49.841Z,3.85
2023-01-31T06:33:47.445Z,3.89
2023-01-31T06:37:10.372Z,3.86
2023-01-31T06:40:58.882Z,3.91
2023-01-31T06:44:37.785Z,4.00
2023-01-31T06:48:06.970Z,3.99
2023-01-31T06:51:51.552Z,3.91
2023-01-31T06:55:33.012Z,3.75
2023-01-31T06:59:12.819Z,4.00
2023-01-31T07:02:39.646Z,4.01
2023-01-31T07:06:14.035Z,4.02
2023-01-31T07:09:25.436Z,4.08
2023-01-31T07:13:08.662Z,4.01
2023-01-31T07:16:36.352Z,4.08
2023-01-31T07:20:01.918Z,4.12
2023-01-31T07:23:49.431Z,3.86
2023-01-31T07:27:15.386Z,3.91
2023-01-31T07:30:55.823Z,3.88
2023-01-31T07:34:26.149Z,3.98
2023-01-31T07:37:46.028Z,4.05
2023-01-31T07:41:27.086Z,4.01
2023-01-31T07:45:21.694Z,4.07
2023-01-31T07:49:02.299Z,4.11
2023-01-31T07:52:26.717Z,4.02
2023-01-31T07:56:15.893Z,4.10
2023-01-31T08:00:07.561Z,4.01
2023-01-31T08:04:10.777Z,4.11
2023-01-31T08:07:57.837Z,4.14
2023-01-31T08:11:29.328Z,4.29
2023-01-31T08:15:19.072Z,4.42
2023-01-31T08:19:01.113Z,4.50
2023-01-31T08:22:42.895Z,4.42
2023-01-31T08:26:26.548Z,4.62
2023-01-31T08:29:55.650Z,4.38
2023-01-31T08:33:08.933Z,4.49
2023-01-31T08:36:58.802Z,4.67
2023-01-31T08:40:24.125Z,4.61
2023-01-31T08:44:08.883Z,4.60
2023-01-31T08:47:56.483Z,4.57
2023-01-31T08:51:46.234Z,4.84
2023-01-31T08:55:35.654Z,4.93
2023-01-31T08:59:17.421Z,5.03
2023-01-31T09:03:07.042Z,4.95
2023-01-31T09:06:34.778Z,4.98
2023-01-31T09:10:13.612Z,4.85
2023-01-31T09:13:45.663Z,4.96
2023-01-31T09:17:04.400Z,5.00
2023-01-31T09:20:20.550Z,5.08
2023-01-31T09:23:37.197Z,5.17
2023-01-31T09:27:11.064Z,5.16
2023-01-31T09:30:56.513Z,5.26
2023-01-31T09:34:02.725Z,5.63
2023-01-31T09:37:40.499Z,5.73
2023-01-31T09:41:05.970Z,5.64
2023-01-31T09:45:08.997Z,5.35
2023-01-31T09:48:48.883Z,5.32
2023-01-31T09:52:30.837Z,5.38
2023-01-31T09:56:17.941Z,5.32
2023-01-31T10:00:01.158Z,5.25
2023-01-31T10:03:57.963Z,5.37
2023-01-31T10:07:56.948Z,5.44
2023-01-31T10:11:55.660Z,5.72
2023-01-31T10:15:53.692Z,5.52
2023-01-31T10:19:43.530Z,5.86
2023-01-31T10:23:29.297Z,5.92
2023-01-31T10:27:17.923Z,6.19
2023-01-31T10:31:08.647Z,6.31
2023-01-31T10:35:04.183Z,6.40
2023-01-31T10:38:54.131Z,6.56
2023-01-31T10:42:40.807Z,6.61
2023-01-31T10:46:30.870Z,6.48
2023-01-31T10:49:58.504Z,6.58
2023-01-31T10:53:58.190Z,6.41
2023-01-31T10:57:45.912Z,6.27
2023-01-31T11:01:35.405Z,6.32
2023-01-31T11:05:27.514Z,6.32
2023-01-31T11:09:13.250Z,6.22
2023-01-31T11:13:02.590Z,6.08
2023-01-31T11:16:52.562Z,6.18
2023-01-31T11:21:08.045Z,6.18
2023-01-31T11:24:58.520Z,6.34
2023-01-31T11:28:47.639Z,6.14
2023-01-31T11:32:36.711Z,6.31
2023-01-31T11:36:19.121Z,6.26
2023-01-31T11:40:10.605Z,6.29
2023-01-31T11:43:59.945Z,6.31
2023-01-31T11:47:49.014Z,6.19
2023-01-31T11:51:45.572Z,6.17
2023-01-31T11:55:28.187Z,6.33
2023-01-31T11:59:10.787Z,5.95
2023-01-31T12:03:00.441Z,5.77
2023-01-31T12:06:47.081Z,5.72
2023-01-31T12:10:31.402Z,5.76
2023-01-31T12:14:26.641Z,5.86
2023-01-31T12:18:16.234Z,6.06
2023-01-31T12:22:12.080Z,6.11
2023-01-31T12:26:13.392Z,6.13
2023-01-31T12:30:01.621Z,6.04
2023-01-31T12:34:07.751Z,6.03
2023-01-31T12:37:56.511Z,5.92
2023-01-31T12:41:41.680Z,5.89
2023-01-31T12:45:28.725Z,5.76
2023-01-31T12:49:13.471Z,5.61
2023-01-31T12:53:18.022Z,5.62
2023-01-31T12:57:21.393Z,5.70
2023-01-31T13:01:26.449Z,5.67
2023-01-31T13:05:05.341Z,5.72
2023-01-31T13:09:07.846Z,5.90
2023-01-31T13:13:16.404Z,5.98
2023-01-31T13:17:20.745Z,5.69
2023-01-31T13:21:13.058Z,5.57
2023-01-31T13:25:05.215Z,5.64
2023-01-31T13:28:49.639Z,5.69
2023-01-31T13:32:36.612Z,5.65
2023-01-31T13:36:09.676Z,5.63
2023-01-31T13:39:34.457Z,5.53
2023-01-31T13:43:15.247Z,5.37
2023-01-31T13:46:31.408Z,5.29
2023-01-31T13:50:26.840Z,5.27
2023-01-31T13:53:48.415Z,5.31
2023-01-31T13:57:30.813Z,5.36
2023-01-31T14:01:15.361Z,5.39
2023-01-31T14:04:56.401Z,5.45
2023-01-31T14:08:44.921Z,5.35
2023-01-31T14:12:27.345Z,5.27
2023-01-31T14:16:27.502Z,5.19
2023-01-31T14:20:12.975Z,5.26
2023-01-31T14:24:11.412Z,5.11
2023-01-31T14:28:02.911Z,5.01
2023-01-31T14:31:28.904Z,4.97
2023-01-31T14:34:37.774Z,4.99
2023-01-31T14:38:28.370Z,5.01
2023-01-31T14:41:55.799Z,5.01
2023-01-31T14:45:07.623Z,4.99
2023-01-31T14:48:23.687Z,4.92
2023-01-31T14:51:50.435Z,4.83
2023-01-31T14:55:56.376Z,4.75
2023-01-31T14:59:39.668Z,4.76
2023-01-31T15:03:26.043Z,4.85
2023-01-31T15:06:51.975Z,4.72
2023-01-31T15:10:33.265Z,4.71
2023-01-31T15:14:32.137Z,4.72
2023-01-31T15:18:00.876Z,4.49
2023-01-31T15:21:42.316Z,4.64
2023-01-31T15:25:21.951Z,4.56
2023-01-31T15:29:11.847Z,4.58
2023-01-31T15:33:28.210Z,4.57
2023-01-31T15:37:26.457Z,4.55
2023-01-31T15:40:52.848Z,4.55
2023-01-31T15:44:36.673Z,4.55
2023-01-31T15:47:47.736Z,4.63
2023-01-31T15:51:36.826Z,4.58
2023-01-31T15:55:10.235Z,4.58
2023-01-31T15:58:47.103Z,4.54
2023-01-31T16:02:21.419Z,4.50
2023-01-31T16:05:52.192Z,4.54
2023-01-31T16:09:28.104Z,4.48
2023-01-31T16:13:00.693Z,4.49
2023-01-31T16:16:10.915Z,4.50
2023-01-31T16:19:19.098Z,4.55
2023-01-31T16:23:05.151Z,4.56
2023-01-31T16:26:45.335Z,4.43
2023-01-31T16:30:34.673Z,4.46
2023-01-31T16:33:52.204Z,4.53
2023-01-31T16:37:12.909Z,4.49
2023-01-31T16:40:40.348Z,4.51
2023-01-31T16:43:57.771Z,4.45
2023-01-31T16:47:19.091Z,4.46
2023-01-31T16:52:25.175Z,4.45
2023-01-31T16:56:21.152Z,4.41
2023-01-31T17:00:37.158Z,4.48
2023-01-31T17:04:57.106Z,4.37
2023-01-31T17:08:54.594Z,4.34
2023-01-31T17:13:03.478Z,4.45
2023-01-31T17:17:21.471Z,4.39
2023-01-31T17:21:43.382Z,4.36
2023-01-31T17:26:00.109Z,4.41
2023-01-31T17:30:01.977Z,4.42
2023-01-31T17:34:15.158Z,4.34
2023-01-31T17:38:30.130Z,4.39
2023-01-31T17:42:31.819Z,4.43
2023-01-31T17:46:42.706Z,4.48
2023-01-31T17:50:38.057Z,4.53
2023-01-31T17:54:32.827Z,4.62
2023-01-31T17:58:27.275Z,4.65
2023-01-31T18:02:57.050Z,4.70
2023-01-31T18:07:07.638Z,4.74
2023-01-31T18:11:17.820Z,4.75
2023-01-31T18:15:48.009Z,4.81
2023-01-31T18:19:59.969Z,4.84
2023-01-31T18:24:11.893Z,4.84
2023-01-31T18:28:24.621Z,4.90
2023-01-31T18:32:49.683Z,4.86
2023-01-31T18:37:20.288Z,4.94
2023-01-31T18:41:11.191Z,4.95
2023-01-31T18:45:09.174Z,4.98
2023-01-31T18:53:01.623Z,5.08
2023-01-31T18:56:10.021Z,5.14
2023-01-31T18:59:40.263Z,4.98
2023-01-31T19:02:52.515Z,5.22
2023-01-31T19:06:14.166Z,5.27
2023-01-31T19:09:26.212Z,5.25
2023-01-31T19:12:42.776Z,5.28
2023-01-31T19:16:15.494Z,5.28
2023-01-31T19:19:48.861Z,5.39
2023-01-31T19:23:42.360Z,5.36
2023-01-31T19:26:57.928Z,5.39
2023-01-31T19:30:17.391Z,5.44
2023-01-31T19:33:27.851Z,5.49
2023-01-31T19:37:15.070Z,5.54
2023-01-31T19:41:00.661Z,5.55
2023-01-31T19:44:13.818Z,5.59
2023-01-31T19:47:47.996Z,5.65
2023-01-31T19:50:47.917Z,5.57
2023-01-31T19:54:07.751Z,5.65
2023-01-31T19:57:33.148Z,5.65
2023-01-31T20:05:12.133Z,5.64
2023-01-31T20:08:42.402Z,5.65
2023-01-31T20:12:23.289Z,5.66
2023-01-31T20:15:33.916Z,5.64
2023-01-31T20:18:59.607Z,5.65
2023-01-31T20:22:33.461Z,5.74
2023-01-31T20:26:28.652Z,5.66
2023-01-31T20:30:11.055Z,5.73
2023-01-31T20:34:01.416Z,5.72
2023-01-31T20:37:43.920Z,5.71
2023-01-31T20:41:15.396Z,5.81
2023-01-31T20:44:42.138Z,5.73
2023-01-31T20:48:08.095Z,5.66
2023-01-31T20:51:45.756Z,5.71
2023-01-31T20:55:18.562Z,5.79
2023-01-31T20:58:28.017Z,5.89
2023-01-31T21:01:47.559Z,5.87
2023-01-31T21:05:09.219Z,5.88
2023-01-31T21:08:42.938Z,5.94
2023-01-31T21:12:32.292Z,5.91
2023-01-31T21:16:14.107Z,5.93
2023-01-31T21:19:56.080Z,5.83
2023-01-31T21:23:45.392Z,5.64
2023-01-31T21:27:23.784Z,5.47
2023-01-31T21:31:12.191Z,5.36
2023-01-31T21:34:53.996Z,5.45
2023-01-31T21:38:35.428Z,5.53
2023-01-31T21:42:35.829Z,4.35
2023-01-31T21:46:24.728Z,4.40
2023-01-31T21:50:14.457Z,4.50
2023-01-31T21:53:53.729Z,4.45
2023-01-31T21:57:42.943Z,4.45
2023-01-31T22:01:25.592Z,4.47
2023-01-31T22:05:15.849Z,4.44
2023-01-31T22:08:58.872Z,4.40
2023-01-31T22:12:49.372Z,4.37
2023-01-31T22:16:38.499Z,4.42
2023-01-31T22:20:28.996Z,4.44
2023-01-31T22:24:03.012Z,4.44
2023-01-31T22:27:52.202Z,4.46
2023-01-31T22:31:41.600Z,4.39
2023-01-31T22:35:30.980Z,4.35
2023-01-31T22:39:20.160Z,4.31
2023-01-31T22:43:02.460Z,4.28
2023-01-31T22:46:41.555Z,4.28
2023-01-31T22:50:29.532Z,4.32
2023-01-31T22:54:10.896Z,4.36
2023-01-31T22:57:59.955Z,4.45
2023-01-31T23:01:55.315Z,4.44
2023-01-31T23:05:44.287Z,4.43
2023-01-31T23:09:33.854Z,4.37
2023-01-31T23:13:25.725Z,4.32
2023-01-31T23:17:15.906Z,4.15
2023-01-31T23:21:08.362Z,4.11
2023-01-31T23:24:56.509Z,4.07
2023-01-31T23:28:30.933Z,4.01
2023-01-31T23:32:18.933Z,3.97
2023-01-31T23:36:08.455Z,3.93
2023-01-31T23:39:57.753Z,4.02
2023-01-31T23:44:16.868Z,4.12
2023-01-31T23:48:47.391Z,4.14
2023-01-31T23:53:17.733Z,4.30
2023-01-31T23:57:46.808Z,4.32
